createdAt,value
2022-10-16T00:00:28.006Z,79.73
2022-10-16T00:05:45.137Z,80.35
2022-10-16T00:10:53.164Z,79.45
2022-10-16T00:15:50.526Z,79.74
2022-10-16T00:21:10.029Z,80.19
2022-10-16T00:32:31.007Z,82.14
2022-10-16T00:50:40.939Z,83.08
2022-10-16T00:55:37.579Z,82.15
2022-10-16T01:08:03.361Z,79.95
2022-10-16T01:21:46.950Z,79.54
2022-10-16T01:34:30.084Z,79.20
2022-10-16T02:07:39.804Z,81.23
2022-10-16T02:12:54.679Z,80.83
2022-10-16T02:17:59.959Z,80.70
2022-10-16T02:22:59.399Z,81.56
2022-10-16T02:28:54.835Z,82.04
2022-10-16T02:33:52.490Z,82.74
2022-10-16T02:38:47.527Z,82.68
2022-10-16T02:44:05.734Z,82.60
2022-10-16T02:49:39.191Z,82.95
2022-10-16T02:54:50.381Z,81.99
2022-10-16T02:59:46.731Z,81.46
2022-10-16T03:05:30.848Z,81.13
2022-10-16T03:16:52.850Z,81.53
2022-10-16T03:42:12.937Z,82.54
2022-10-16T04:01:10.275Z,81.68
2022-10-16T04:06:08.849Z,81.38
2022-10-16T04:11:22.919Z,82.14
2022-10-16T04:16:18.031Z,83.24
2022-10-16T04:21:34.639Z,83.17
2022-10-16T04:27:08.097Z,83.03
2022-10-16T04:45:07.371Z,82.81
2022-10-16T04:50:17.451Z,83.94
2022-10-16T04:56:50.976Z,84.33
2022-10-16T05:49:50.648Z,88.14
2022-10-16T05:54:43.726Z,87.74
2022-10-16T05:59:36.884Z,87.26
2022-10-16T06:04:30.082Z,86.61
2022-10-16T06:09:24.570Z,86.12
2022-10-16T06:14:17.690Z,85.64
2022-10-16T06:19:10.969Z,85.16
2022-10-16T06:24:04.170Z,84.95
2022-10-16T06:29:00.846Z,84.89
2022-10-16T06:33:54.113Z,84.13
2022-10-16T06:38:47.308Z,83.55
2022-10-16T06:43:40.853Z,83.46
2022-10-16T06:48:35.717Z,83.71
2022-10-16T06:53:36.036Z,83.50
2022-10-16T06:58:37.523Z,82.80
2022-10-16T07:03:31.198Z,82.27
2022-10-16T07:08:25.836Z,81.54
2022-10-16T07:13:19.096Z,80.26
2022-10-16T07:18:12.281Z,79.42
2022-10-16T07:23:05.386Z,78.15
2022-10-16T07:28:00.056Z,77.48
2022-10-16T07:32:53.244Z,76.50
2022-10-16T07:37:47.432Z,75.77
2022-10-16T07:42:40.708Z,75.01
2022-10-16T07:47:35.250Z,74.51
2022-10-16T07:52:28.438Z,73.52
2022-10-16T07:57:21.702Z,72.14
2022-10-16T08:02:14.854Z,71.48
2022-10-16T08:07:10.822Z,71.00
2022-10-16T08:12:05.246Z,70.70
2022-10-16T08:16:58.331Z,69.16
2022-10-16T08:21:51.505Z,67.99
2022-10-16T08:26:46.062Z,66.66
2022-10-16T08:31:39.374Z,66.38
2022-10-16T08:36:32.579Z,64.92
2022-10-16T08:41:43.062Z,64.19
2022-10-16T08:46:50.616Z,61.79
2022-10-16T08:51:44.687Z,59.30
2022-10-16T08:56:37.895Z,56.75
2022-10-16T09:01:43.397Z,54.08
2022-10-16T09:06:49.990Z,52.66
2022-10-16T09:11:50.902Z,50.80
2022-10-16T09:16:51.227Z,50.20
2022-10-16T09:21:48.610Z,49.05
2022-10-16T09:26:41.758Z,47.87
2022-10-16T09:31:38.491Z,47.07
2022-10-16T09:36:44.364Z,48.54
2022-10-16T09:41:39.520Z,47.14
2022-10-16T09:46:34.498Z,47.53
2022-10-16T09:51:29.694Z,46.40
2022-10-16T09:56:33.405Z,46.34
2022-10-16T10:01:32.499Z,47.21
2022-10-16T10:06:29.241Z,47.22
2022-10-16T10:11:46.261Z,46.99
2022-10-16T10:16:39.575Z,47.52
2022-10-16T10:21:35.854Z,47.62
2022-10-16T10:26:30.890Z,47.12
2022-10-16T10:31:34.674Z,47.45
2022-10-16T10:36:32.485Z,48.34
2022-10-16T10:41:55.562Z,47.64
2022-10-16T10:46:53.900Z,47.77
2022-10-16T10:52:03.777Z,47.77
2022-10-16T10:57:05.179Z,47.60
2022-10-16T11:02:07.332Z,47.45
2022-10-16T11:07:04.603Z,47.24
2022-10-16T11:12:05.182Z,46.45
2022-10-16T11:17:06.577Z,46.65
2022-10-16T11:22:09.513Z,46.28
2022-10-16T11:27:10.249Z,45.54
2022-10-16T11:32:14.681Z,45.17
2022-10-16T11:37:13.897Z,44.68
2022-10-16T11:42:13.162Z,44.63
2022-10-16T11:53:01.622Z,44.77
2022-10-16T11:58:04.006Z,45.22
2022-10-16T12:03:09.596Z,44.93
2022-10-16T12:08:10.400Z,45.06
2022-10-16T12:13:06.870Z,45.21
2022-10-16T12:18:03.197Z,45.20
2022-10-16T12:22:59.546Z,45.40
2022-10-16T12:28:07.693Z,44.50
2022-10-16T12:33:04.836Z,44.53
2022-10-16T12:38:09.713Z,44.79
2022-10-16T12:43:14.293Z,44.37
2022-10-16T12:49:07.179Z,44.68
2022-10-16T12:54:07.161Z,44.41
2022-10-16T12:59:11.518Z,45.16
2022-10-16T13:04:26.324Z,44.47
2022-10-16T13:09:32.702Z,44.43
2022-10-16T13:14:44.989Z,44.61
2022-10-16T13:19:45.913Z,44.75
2022-10-16T13:24:55.848Z,43.69
2022-10-16T13:29:58.487Z,43.27
2022-10-16T13:34:52.836Z,43.65
2022-10-16T13:39:51.686Z,44.19
2022-10-16T13:44:47.068Z,43.88
2022-10-16T13:49:40.206Z,44.13
2022-10-16T13:54:33.382Z,43.71
2022-10-16T13:59:35.120Z,43.05
2022-10-16T14:04:34.926Z,43.42
2022-10-16T14:09:30.420Z,43.37
2022-10-16T14:14:24.493Z,43.55
2022-10-16T14:19:23.565Z,42.33
2022-10-16T14:24:27.733Z,42.63
2022-10-16T14:29:22.779Z,43.03
2022-10-16T14:34:28.691Z,42.22
2022-10-16T14:39:24.270Z,42.58
2022-10-16T14:44:19.623Z,42.26
2022-10-16T14:49:18.923Z,41.96
2022-10-16T14:54:13.974Z,42.79
2022-10-16T14:59:07.352Z,42.65
2022-10-16T15:04:00.540Z,42.82
2022-10-16T15:08:53.745Z,43.85
2022-10-16T15:13:49.028Z,43.85
2022-10-16T15:18:43.394Z,44.14
2022-10-16T15:23:36.542Z,45.20
2022-10-16T15:28:29.819Z,46.86
2022-10-16T15:33:28.130Z,47.92
2022-10-16T15:38:23.398Z,48.93
2022-10-16T15:43:16.914Z,49.84
2022-10-16T15:48:13.599Z,50.65
2022-10-16T15:53:08.370Z,51.59
2022-10-16T15:58:03.578Z,52.33
2022-10-16T16:03:01.441Z,53.11
2022-10-16T16:07:54.809Z,53.37
2022-10-16T16:12:53.126Z,54.08
2022-10-16T16:23:03.322Z,53.58
2022-10-16T16:28:02.911Z,53.65
2022-10-16T16:33:09.786Z,53.36
2022-10-16T16:38:11.752Z,53.85
2022-10-16T16:43:17.125Z,54.39
2022-10-16T16:48:11.019Z,54.30
2022-10-16T16:53:08.887Z,54.51
2022-10-16T16:58:07.909Z,54.73
2022-10-16T17:03:13.051Z,55.13
2022-10-16T17:08:16.443Z,55.07
2022-10-16T17:13:15.645Z,55.53
2022-10-16T17:18:19.936Z,55.99
2022-10-16T17:23:21.241Z,56.25
2022-10-16T17:28:16.972Z,56.65
2022-10-16T18:02:26.307Z,56.75
2022-10-16T18:07:34.136Z,54.81
2022-10-16T18:12:27.538Z,56.56
2022-10-16T18:17:20.812Z,57.07
2022-10-16T18:22:15.703Z,58.18
2022-10-16T18:27:08.925Z,59.97
2022-10-16T18:32:02.405Z,60.96
2022-10-16T18:36:57.638Z,61.42
2022-10-16T18:41:59.740Z,62.15
2022-10-16T18:46:57.081Z,62.98
2022-10-16T18:51:52.941Z,63.87
2022-10-16T18:56:46.090Z,64.18
2022-10-16T19:01:42.686Z,64.99
2022-10-16T19:06:37.475Z,64.76
2022-10-16T19:11:31.601Z,62.58
2022-10-16T19:16:26.370Z,58.94
2022-10-16T19:21:22.035Z,56.97
2022-10-16T19:26:17.275Z,55.13
2022-10-16T19:31:13.824Z,53.79
2022-10-16T19:36:12.093Z,52.87
2022-10-16T19:41:11.410Z,52.01
2022-10-16T19:46:05.851Z,53.89
2022-10-16T19:50:59.220Z,56.10
2022-10-16T19:55:52.367Z,57.61
2022-10-16T20:00:46.880Z,58.20
2022-10-16T20:05:40.054Z,59.63
2022-10-16T20:10:33.211Z,61.26
2022-10-16T20:15:26.304Z,62.37
2022-10-16T20:20:20.857Z,63.56
2022-10-16T20:25:16.764Z,64.81
2022-10-16T20:30:12.643Z,65.96
2022-10-16T20:35:07.942Z,66.55
2022-10-16T20:40:02.729Z,67.34
2022-10-16T20:44:55.886Z,68.02
2022-10-16T20:49:48.943Z,68.39
2022-10-16T20:54:42.021Z,69.11
2022-10-16T20:59:36.542Z,69.22
2022-10-16T21:04:29.772Z,68.34
2022-10-16T21:09:22.821Z,68.90
2022-10-16T21:14:16.140Z,69.17
2022-10-16T21:19:10.717Z,69.81
2022-10-16T21:24:03.825Z,70.17
2022-10-16T21:28:59.745Z,70.32
2022-10-16T21:33:53.607Z,70.73
2022-10-16T21:38:48.818Z,71.07
2022-10-16T21:43:42.150Z,71.32
2022-10-16T21:48:35.345Z,71.68
2022-10-16T21:53:28.577Z,71.99
2022-10-16T21:58:23.061Z,73.26
2022-10-16T22:03:16.174Z,73.98
2022-10-16T22:08:09.519Z,74.55
2022-10-16T22:13:02.751Z,75.25
2022-10-16T22:17:57.262Z,75.95
2022-10-16T22:22:50.344Z,75.84
2022-10-16T22:27:43.500Z,76.25
2022-10-16T22:32:36.587Z,76.69
2022-10-16T22:37:31.236Z,75.82
2022-10-16T22:42:24.526Z,74.88
2022-10-16T22:47:17.667Z,74.56
2022-10-16T22:52:10.974Z,74.38
2022-10-16T22:57:05.653Z,73.89
2022-10-16T23:01:58.751Z,74.21
2022-10-16T23:06:52.056Z,75.21
2022-10-16T23:11:45.095Z,76.13
2022-10-16T23:16:39.500Z,77.44
2022-10-16T23:21:32.650Z,77.77
2022-10-16T23:26:28.118Z,78.08
2022-10-16T23:31:21.171Z,78.90
2022-10-16T23:36:17.924Z,79.35
2022-10-16T23:41:11.432Z,78.84
2022-10-16T23:46:05.495Z,79.00
2022-10-16T23:50:58.572Z,78.93
2022-10-16T23:55:53.110Z,78.52
